sensor_id;sensor_type;location;lat;lon;timestamp;temperature;humidity
2729;DHT22;1372;47.956;7.830;2023-06-26T00:00:22;18.90;99.90
2729;DHT22;1372;47.956;7.830;2023-06-26T00:02:52;19.00;99.90
2729;DHT22;1372;47.956;7.830;2023-06-26T00:05:21;19.00;99.90
2729;DHT22;1372;47.956;7.830;2023-06-26T00:07:50;19.10;99.90
2729;DHT22;1372;47.956;7.830;2023-06-26T00:10:19;19.10;99.90
2729;DHT22;1372;47.956;7.830;2023-06-26T00:12:48;19.10;99.90
2729;DHT22;1372;47.956;7.830;2023-06-26T00:15:17;19.10;99.90
2729;DHT22;1372;47.956;7.830;2023-06-26T00:17:46;19.00;99.90
2729;DHT22;1372;47.956;7.830;2023-06-26T00:20:16;19.10;99.90
2729;DHT22;1372;47.956;7.830;2023-06-26T00:22:46;19.10;99.90
2729;DHT22;1372;47.956;7.830;2023-06-26T00:25:17;19.10;99.90
2729;DHT22;1372;47.956;7.830;2023-06-26T00:27:47;19.00;99.90
2729;DHT22;1372;47.956;7.830;2023-06-26T00:30:15;18.90;99.90
2729;DHT22;1372;47.956;7.830;2023-06-26T00:32:44;18.80;99.90
2729;DHT22;1372;47.956;7.830;2023-06-26T00:35:13;18.80;99.90
2729;DHT22;1372;47.956;7.830;2023-06-26T00:37:44;18.70;99.90
2729;DHT22;1372;47.956;7.830;2023-06-26T00:40:13;18.70;99.90
2729;DHT22;1372;47.956;7.830;2023-06-26T00:42:50;18.60;99.90
2729;DHT22;1372;47.956;7.830;2023-06-26T00:45:22;18.60;99.90
2729;DHT22;1372;47.956;7.830;2023-06-26T00:48:05;18.60;99.90
2729;DHT22;1372;47.956;7.830;2023-06-26T00:50:35;18.60;99.90
2729;DHT22;1372;47.956;7.830;2023-06-26T00:53:04;18.60;99.90
2729;DHT22;1372;47.956;7.830;2023-06-26T00:55:33;18.50;99.90
2729;DHT22;1372;47.956;7.830;2023-06-26T00:58:02;18.60;99.90
2729;DHT22;1372;47.956;7.830;2023-06-26T01:00:31;18.50;99.90
2729;DHT22;1372;47.956;7.830;2023-06-26T01:03:00;18.60;99.90
2729;DHT22;1372;47.956;7.830;2023-06-26T01:05:29;18.60;99.90
2729;DHT22;1372;47.956;7.830;2023-06-26T01:08:00;18.60;99.90
2729;DHT22;1372;47.956;7.830;2023-06-26T01:10:29;18.50;99.90
2729;DHT22;1372;47.956;7.830;2023-06-26T01:12:58;18.60;99.90
2729;DHT22;1372;47.956;7.830;2023-06-26T01:15:27;18.70;99.90
2729;DHT22;1372;47.956;7.830;2023-06-26T01:17:57;18.70;99.90
2729;DHT22;1372;47.956;7.830;2023-06-26T01:20:31;18.70;99.90
2729;DHT22;1372;47.956;7.830;2023-06-26T01:23:07;18.70;99.90
2729;DHT22;1372;47.956;7.830;2023-06-26T01:25:56;18.70;99.90
2729;DHT22;1372;47.956;7.830;2023-06-26T01:28:38;18.80;99.90
2729;DHT22;1372;47.956;7.830;2023-06-26T01:31:12;18.80;99.90
2729;DHT22;1372;47.956;7.830;2023-06-26T01:33:45;18.70;99.90
2729;DHT22;1372;47.956;7.830;2023-06-26T01:36:14;18.60;99.90
2729;DHT22;1372;47.956;7.830;2023-06-26T01:38:43;18.50;99.90
2729;DHT22;1372;47.956;7.830;2023-06-26T01:41:14;18.50;99.90
2729;DHT22;1372;47.956;7.830;2023-06-26T01:43:57;18.50;99.90
2729;DHT22;1372;47.956;7.830;2023-06-26T01:46:38;18.50;99.90
2729;DHT22;1372;47.956;7.830;2023-06-26T01:49:14;18.40;99.90
2729;DHT22;1372;47.956;7.830;2023-06-26T01:51:51;18.40;99.90
2729;DHT22;1372;47.956;7.830;2023-06-26T01:54:25;18.40;99.90
2729;DHT22;1372;47.956;7.830;2023-06-26T01:57:00;18.30;99.90
2729;DHT22;1372;47.956;7.830;2023-06-26T01:59:32;18.30;99.90
2729;DHT22;1372;47.956;7.830;2023-06-26T02:02:02;18.40;99.90
2729;DHT22;1372;47.956;7.830;2023-06-26T02:04:30;18.30;99.90
2729;DHT22;1372;47.956;7.830;2023-06-26T02:06:59;18.30;99.90
2729;DHT22;1372;47.956;7.830;2023-06-26T02:09:28;18.30;99.90
2729;DHT22;1372;47.956;7.830;2023-06-26T02:11:57;18.30;99.90
2729;DHT22;1372;47.956;7.830;2023-06-26T02:14:27;18.40;99.90
2729;DHT22;1372;47.956;7.830;2023-06-26T02:16:56;18.40;99.90
2729;DHT22;1372;47.956;7.830;2023-06-26T02:19:27;18.30;99.90
2729;DHT22;1372;47.956;7.830;2023-06-26T02:21:56;18.30;99.90
2729;DHT22;1372;47.956;7.830;2023-06-26T02:24:25;18.40;99.90
2729;DHT22;1372;47.956;7.830;2023-06-26T02:26:57;18.40;99.90
2729;DHT22;1372;47.956;7.830;2023-06-26T02:29:27;18.40;99.90
2729;DHT22;1372;47.956;7.830;2023-06-26T02:31:56;18.40;99.90
2729;DHT22;1372;47.956;7.830;2023-06-26T02:34:25;18.40;99.90
2729;DHT22;1372;47.956;7.830;2023-06-26T02:36:54;18.40;99.90
2729;DHT22;1372;47.956;7.830;2023-06-26T02:39:23;18.40;99.90
2729;DHT22;1372;47.956;7.830;2023-06-26T02:41:54;18.50;99.90
2729;DHT22;1372;47.956;7.830;2023-06-26T02:44:23;18.50;99.90
2729;DHT22;1372;47.956;7.830;2023-06-26T02:46:53;18.40;99.90
2729;DHT22;1372;47.956;7.830;2023-06-26T02:49:22;18.30;99.90
2729;DHT22;1372;47.956;7.830;2023-06-26T02:51:53;18.20;99.90
2729;DHT22;1372;47.956;7.830;2023-06-26T02:54:22;18.20;99.90
2729;DHT22;1372;47.956;7.830;2023-06-26T02:56:50;18.30;99.90
2729;DHT22;1372;47.956;7.830;2023-06-26T02:59:19;18.30;99.90
2729;DHT22;1372;47.956;7.830;2023-06-26T03:01:48;18.30;99.90
2729;DHT22;1372;47.956;7.830;2023-06-26T03:04:19;18.30;99.90
2729;DHT22;1372;47.956;7.830;2023-06-26T03:06:48;18.30;99.90
2729;DHT22;1372;47.956;7.830;2023-06-26T03:09:17;18.30;99.90
2729;DHT22;1372;47.956;7.830;2023-06-26T03:11:46;18.30;99.90
2729;DHT22;1372;47.956;7.830;2023-06-26T03:14:15;18.30;99.90
2729;DHT22;1372;47.956;7.830;2023-06-26T03:16:44;18.30;99.90
2729;DHT22;1372;47.956;7.830;2023-06-26T03:19:13;18.30;99.90
2729;DHT22;1372;47.956;7.830;2023-06-26T03:21:45;18.30;99.90
2729;DHT22;1372;47.956;7.830;2023-06-26T03:24:14;18.30;99.90
2729;DHT22;1372;47.956;7.830;2023-06-26T03:26:43;18.20;99.90
2729;DHT22;1372;47.956;7.830;2023-06-26T03:29:14;18.20;99.90
2729;DHT22;1372;47.956;7.830;2023-06-26T03:31:43;18.10;99.90
2729;DHT22;1372;47.956;7.830;2023-06-26T03:34:12;18.10;99.90
2729;DHT22;1372;47.956;7.830;2023-06-26T03:36:41;18.10;99.90
2729;DHT22;1372;47.956;7.830;2023-06-26T03:39:11;18.10;99.90
2729;DHT22;1372;47.956;7.830;2023-06-26T03:41:40;18.10;99.90
2729;DHT22;1372;47.956;7.830;2023-06-26T03:44:08;18.10;99.90
2729;DHT22;1372;47.956;7.830;2023-06-26T03:46:37;18.10;99.90
2729;DHT22;1372;47.956;7.830;2023-06-26T03:49:06;18.10;99.90
2729;DHT22;1372;47.956;7.830;2023-06-26T03:51:40;18.20;99.90
2729;DHT22;1372;47.956;7.830;2023-06-26T03:54:08;18.10;99.90
2729;DHT22;1372;47.956;7.830;2023-06-26T03:56:39;18.10;99.90
2729;DHT22;1372;47.956;7.830;2023-06-26T03:59:09;18.10;99.90
2729;DHT22;1372;47.956;7.830;2023-06-26T04:01:38;18.10;99.90
2729;DHT22;1372;47.956;7.830;2023-06-26T04:04:09;18.10;99.90
2729;DHT22;1372;47.956;7.830;2023-06-26T04:06:38;18.10;99.90
2729;DHT22;1372;47.956;7.830;2023-06-26T04:09:07;18.10;99.90
2729;DHT22;1372;47.956;7.830;2023-06-26T04:11:37;18.20;99.90
2729;DHT22;1372;47.956;7.830;2023-06-26T04:14:06;18.20;99.90
2729;DHT22;1372;47.956;7.830;2023-06-26T04:16:35;18.20;99.90
2729;DHT22;1372;47.956;7.830;2023-06-26T04:19:03;18.20;99.90
2729;DHT22;1372;47.956;7.830;2023-06-26T04:21:35;18.30;99.90
2729;DHT22;1372;47.956;7.830;2023-06-26T04:24:05;18.30;99.90
2729;DHT22;1372;47.956;7.830;2023-06-26T04:26:34;18.30;99.90
2729;DHT22;1372;47.956;7.830;2023-06-26T04:29:04;18.40;99.90
2729;DHT22;1372;47.956;7.830;2023-06-26T04:31:33;18.40;99.90
2729;DHT22;1372;47.956;7.830;2023-06-26T04:34:02;18.40;99.90
2729;DHT22;1372;47.956;7.830;2023-06-26T04:36:31;18.40;99.90
2729;DHT22;1372;47.956;7.830;2023-06-26T04:39:03;18.40;99.90
2729;DHT22;1372;47.956;7.830;2023-06-26T04:41:32;18.50;99.90
2729;DHT22;1372;47.956;7.830;2023-06-26T04:44:01;18.60;99.90
2729;DHT22;1372;47.956;7.830;2023-06-26T04:46:34;18.60;99.90
2729;DHT22;1372;47.956;7.830;2023-06-26T04:49:03;18.60;99.90
2729;DHT22;1372;47.956;7.830;2023-06-26T04:51:32;18.70;99.90
2729;DHT22;1372;47.956;7.830;2023-06-26T04:54:01;18.80;99.90
2729;DHT22;1372;47.956;7.830;2023-06-26T04:56:30;18.90;99.90
2729;DHT22;1372;47.956;7.830;2023-06-26T04:58:59;19.10;99.90
2729;DHT22;1372;47.956;7.830;2023-06-26T05:01:28;19.50;99.90
2729;DHT22;1372;47.956;7.830;2023-06-26T05:04:00;19.70;99.90
2729;DHT22;1372;47.956;7.830;2023-06-26T05:06:29;19.80;99.90
2729;DHT22;1372;47.956;7.830;2023-06-26T05:08:58;20.00;99.90
2729;DHT22;1372;47.956;7.830;2023-06-26T05:11:27;20.00;99.90
2729;DHT22;1372;47.956;7.830;2023-06-26T05:13:56;20.10;99.90
2729;DHT22;1372;47.956;7.830;2023-06-26T05:16:25;20.20;99.90
2729;DHT22;1372;47.956;7.830;2023-06-26T05:18:57;20.20;99.90
2729;DHT22;1372;47.956;7.830;2023-06-26T05:21:28;20.20;99.90
2729;DHT22;1372;47.956;7.830;2023-06-26T05:24:07;20.30;99.90
2729;DHT22;1372;47.956;7.830;2023-06-26T05:26:41;20.30;99.90
2729;DHT22;1372;47.956;7.830;2023-06-26T05:29:11;20.40;99.90
2729;DHT22;1372;47.956;7.830;2023-06-26T05:31:41;20.50;99.90
2729;DHT22;1372;47.956;7.830;2023-06-26T05:34:11;20.60;99.90
2729;DHT22;1372;47.956;7.830;2023-06-26T05:36:44;20.80;99.90
2729;DHT22;1372;47.956;7.830;2023-06-26T05:39:13;21.00;99.90
2729;DHT22;1372;47.956;7.830;2023-06-26T05:41:43;21.20;99.90
2729;DHT22;1372;47.956;7.830;2023-06-26T05:44:12;21.40;99.90
2729;DHT22;1372;47.956;7.830;2023-06-26T05:46:41;21.60;99.90
2729;DHT22;1372;47.956;7.830;2023-06-26T05:49:09;21.70;99.90
2729;DHT22;1372;47.956;7.830;2023-06-26T05:51:43;21.80;99.90
2729;DHT22;1372;47.956;7.830;2023-06-26T05:54:13;22.00;99.90
2729;DHT22;1372;47.956;7.830;2023-06-26T05:56:43;22.10;99.90
2729;DHT22;1372;47.956;7.830;2023-06-26T05:59:15;22.30;99.90
2729;DHT22;1372;47.956;7.830;2023-06-26T06:01:45;22.40;99.90
2729;DHT22;1372;47.956;7.830;2023-06-26T06:04:14;22.50;99.90
2729;DHT22;1372;47.956;7.830;2023-06-26T06:06:44;22.60;99.90
2729;DHT22;1372;47.956;7.830;2023-06-26T06:09:16;22.70;99.90
2729;DHT22;1372;47.956;7.830;2023-06-26T06:11:45;22.70;99.90
2729;DHT22;1372;47.956;7.830;2023-06-26T06:14:16;22.70;99.90
2729;DHT22;1372;47.956;7.830;2023-06-26T06:16:45;22.70;99.90
2729;DHT22;1372;47.956;7.830;2023-06-26T06:19:14;22.70;99.90
2729;DHT22;1372;47.956;7.830;2023-06-26T06:21:44;22.80;99.90
2729;DHT22;1372;47.956;7.830;2023-06-26T06:24:13;23.00;99.90
2729;DHT22;1372;47.956;7.830;2023-06-26T06:26:42;23.10;99.90
2729;DHT22;1372;47.956;7.830;2023-06-26T06:29:11;23.20;99.90
2729;DHT22;1372;47.956;7.830;2023-06-26T06:31:40;23.30;99.90
2729;DHT22;1372;47.956;7.830;2023-06-26T06:34:09;23.30;99.90
2729;DHT22;1372;47.956;7.830;2023-06-26T06:36:40;23.40;99.90
2729;DHT22;1372;47.956;7.830;2023-06-26T06:39:10;23.40;99.90
2729;DHT22;1372;47.956;7.830;2023-06-26T06:41:39;23.40;99.90
2729;DHT22;1372;47.956;7.830;2023-06-26T06:44:11;23.50;99.90
2729;DHT22;1372;47.956;7.830;2023-06-26T06:46:40;23.60;99.90
2729;DHT22;1372;47.956;7.830;2023-06-26T06:49:09;23.80;99.90
2729;DHT22;1372;47.956;7.830;2023-06-26T06:51:38;23.90;99.90
2729;DHT22;1372;47.956;7.830;2023-06-26T06:54:07;24.00;99.90
2729;DHT22;1372;47.956;7.830;2023-06-26T06:56:37;24.00;99.90
2729;DHT22;1372;47.956;7.830;2023-06-26T06:59:06;24.10;99.90
2729;DHT22;1372;47.956;7.830;2023-06-26T07:01:35;24.10;99.90
2729;DHT22;1372;47.956;7.830;2023-06-26T07:04:04;24.10;99.90
2729;DHT22;1372;47.956;7.830;2023-06-26T07:06:33;24.20;99.90
2729;DHT22;1372;47.956;7.830;2023-06-26T07:09:02;24.30;99.90
2729;DHT22;1372;47.956;7.830;2023-06-26T07:11:33;24.30;99.90
2729;DHT22;1372;47.956;7.830;2023-06-26T07:14:03;24.30;99.90
2729;DHT22;1372;47.956;7.830;2023-06-26T07:16:32;24.30;99.90
2729;DHT22;1372;47.956;7.830;2023-06-26T07:19:04;24.30;99.90
2729;DHT22;1372;47.956;7.830;2023-06-26T07:21:36;24.30;99.90
2729;DHT22;1372;47.956;7.830;2023-06-26T07:24:05;24.40;99.90
2729;DHT22;1372;47.956;7.830;2023-06-26T07:26:34;24.50;99.90
2729;DHT22;1372;47.956;7.830;2023-06-26T07:29:13;24.50;99.90
2729;DHT22;1372;47.956;7.830;2023-06-26T07:31:45;24.60;99.90
2729;DHT22;1372;47.956;7.830;2023-06-26T07:34:28;24.60;99.90
2729;DHT22;1372;47.956;7.830;2023-06-26T07:36:58;24.70;99.90
2729;DHT22;1372;47.956;7.830;2023-06-26T07:39:26;24.70;99.90
2729;DHT22;1372;47.956;7.830;2023-06-26T07:41:56;24.70;99.90
2729;DHT22;1372;47.956;7.830;2023-06-26T07:44:28;24.80;99.90
2729;DHT22;1372;47.956;7.830;2023-06-26T07:46:59;24.80;99.90
2729;DHT22;1372;47.956;7.830;2023-06-26T07:49:30;24.80;99.90
2729;DHT22;1372;47.956;7.830;2023-06-26T07:51:59;24.90;99.90
2729;DHT22;1372;47.956;7.830;2023-06-26T07:54:28;24.90;99.90
2729;DHT22;1372;47.956;7.830;2023-06-26T07:56:58;24.90;99.90
2729;DHT22;1372;47.956;7.830;2023-06-26T07:59:29;24.90;99.90
2729;DHT22;1372;47.956;7.830;2023-06-26T08:02:01;25.00;99.90
2729;DHT22;1372;47.956;7.830;2023-06-26T08:04:30;25.20;99.90
2729;DHT22;1372;47.956;7.830;2023-06-26T08:07:01;25.20;99.90
2729;DHT22;1372;47.956;7.830;2023-06-26T08:09:32;25.40;99.90
2729;DHT22;1372;47.956;7.830;2023-06-26T08:12:01;25.50;99.90
2729;DHT22;1372;47.956;7.830;2023-06-26T08:14:31;25.40;99.90
2729;DHT22;1372;47.956;7.830;2023-06-26T08:17:00;25.50;99.90
2729;DHT22;1372;47.956;7.830;2023-06-26T08:19:29;25.60;99.90
2729;DHT22;1372;47.956;7.830;2023-06-26T08:21:58;25.70;99.90
2729;DHT22;1372;47.956;7.830;2023-06-26T08:24:29;25.80;99.90
2729;DHT22;1372;47.956;7.830;2023-06-26T08:26:58;25.70;99.90
2729;DHT22;1372;47.956;7.830;2023-06-26T08:29:27;25.70;99.90
2729;DHT22;1372;47.956;7.830;2023-06-26T08:31:58;25.70;99.90
2729;DHT22;1372;47.956;7.830;2023-06-26T08:34:26;25.70;99.90
2729;DHT22;1372;47.956;7.830;2023-06-26T08:36:55;25.80;99.90
2729;DHT22;1372;47.956;7.830;2023-06-26T08:39:27;25.70;99.90
2729;DHT22;1372;47.956;7.830;2023-06-26T08:41:56;25.70;99.90
2729;DHT22;1372;47.956;7.830;2023-06-26T08:44:25;25.70;99.90
2729;DHT22;1372;47.956;7.830;2023-06-26T08:46:54;25.80;99.90
2729;DHT22;1372;47.956;7.830;2023-06-26T08:49:29;25.90;99.90
2729;DHT22;1372;47.956;7.830;2023-06-26T08:52:07;26.00;99.90
2729;DHT22;1372;47.956;7.830;2023-06-26T08:54:45;26.00;99.90
2729;DHT22;1372;47.956;7.830;2023-06-26T08:57:18;26.00;99.90
2729;DHT22;1372;47.956;7.830;2023-06-26T08:59:47;26.00;99.90
2729;DHT22;1372;47.956;7.830;2023-06-26T09:02:17;26.00;99.90
2729;DHT22;1372;47.956;7.830;2023-06-26T09:04:47;26.10;99.90
2729;DHT22;1372;47.956;7.830;2023-06-26T09:07:16;26.10;99.90
2729;DHT22;1372;47.956;7.830;2023-06-26T09:09:45;26.20;99.90
2729;DHT22;1372;47.956;7.830;2023-06-26T09:12:14;26.40;99.90
2729;DHT22;1372;47.956;7.830;2023-06-26T09:14:43;26.50;99.90
2729;DHT22;1372;47.956;7.830;2023-06-26T09:17:13;26.50;99.90
2729;DHT22;1372;47.956;7.830;2023-06-26T09:19:48;26.50;99.90
2729;DHT22;1372;47.956;7.830;2023-06-26T09:22:17;26.50;99.90
2729;DHT22;1372;47.956;7.830;2023-06-26T09:24:46;26.60;99.90
2729;DHT22;1372;47.956;7.830;2023-06-26T09:27:16;26.60;99.90
2729;DHT22;1372;47.956;7.830;2023-06-26T09:29:45;26.60;99.90
2729;DHT22;1372;47.956;7.830;2023-06-26T09:32:17;26.60;99.90
2729;DHT22;1372;47.956;7.830;2023-06-26T09:34:47;26.60;99.90
2729;DHT22;1372;47.956;7.830;2023-06-26T09:37:16;26.50;99.90
2729;DHT22;1372;47.956;7.830;2023-06-26T09:39:46;26.50;99.90
2729;DHT22;1372;47.956;7.830;2023-06-26T09:42:14;26.50;99.90
2729;DHT22;1372;47.956;7.830;2023-06-26T09:44:46;26.40;99.90
2729;DHT22;1372;47.956;7.830;2023-06-26T09:47:18;26.30;99.90
2729;DHT22;1372;47.956;7.830;2023-06-26T09:49:50;26.30;99.90
2729;DHT22;1372;47.956;7.830;2023-06-26T09:52:20;26.30;99.90
2729;DHT22;1372;47.956;7.830;2023-06-26T09:54:49;26.30;99.90
2729;DHT22;1372;47.956;7.830;2023-06-26T09:57:19;26.20;99.90
2729;DHT22;1372;47.956;7.830;2023-06-26T09:59:48;26.20;99.90
2729;DHT22;1372;47.956;7.830;2023-06-26T10:02:18;26.20;99.90
2729;DHT22;1372;47.956;7.830;2023-06-26T10:04:48;26.20;99.90
2729;DHT22;1372;47.956;7.830;2023-06-26T10:07:17;26.30;99.90
2729;DHT22;1372;47.956;7.830;2023-06-26T10:09:48;26.40;99.90
2729;DHT22;1372;47.956;7.830;2023-06-26T10:12:23;26.40;99.90
2729;DHT22;1372;47.956;7.830;2023-06-26T10:14:58;26.40;99.90
2729;DHT22;1372;47.956;7.830;2023-06-26T10:17:28;26.50;99.90
2729;DHT22;1372;47.956;7.830;2023-06-26T10:20:02;26.40;99.90
2729;DHT22;1372;47.956;7.830;2023-06-26T10:22:36;26.40;99.90
2729;DHT22;1372;47.956;7.830;2023-06-26T10:25:09;26.30;99.90
2729;DHT22;1372;47.956;7.830;2023-06-26T10:27:53;26.30;99.90
2729;DHT22;1372;47.956;7.830;2023-06-26T10:30:27;26.20;99.90
2729;DHT22;1372;47.956;7.830;2023-06-26T10:33:00;26.20;99.90
2729;DHT22;1372;47.956;7.830;2023-06-26T10:35:33;26.20;99.90
2729;DHT22;1372;47.956;7.830;2023-06-26T10:38:02;26.20;99.90
2729;DHT22;1372;47.956;7.830;2023-06-26T10:40:46;26.20;99.90
2729;DHT22;1372;47.956;7.830;2023-06-26T10:43:30;26.20;99.90
2729;DHT22;1372;47.956;7.830;2023-06-26T10:45:59;26.20;99.90
2729;DHT22;1372;47.956;7.830;2023-06-26T10:48:29;26.20;99.90
2729;DHT22;1372;47.956;7.830;2023-06-26T10:51:13;26.10;99.90
2729;DHT22;1372;47.956;7.830;2023-06-26T10:53:42;26.10;99.90
2729;DHT22;1372;47.956;7.830;2023-06-26T10:56:40;26.00;99.90
2729;DHT22;1372;47.956;7.830;2023-06-26T10:59:20;26.00;99.90
2729;DHT22;1372;47.956;7.830;2023-06-26T11:01:57;26.10;99.90
2729;DHT22;1372;47.956;7.830;2023-06-26T11:04:37;26.20;99.90
2729;DHT22;1372;47.956;7.830;2023-06-26T11:07:20;26.40;99.90
2729;DHT22;1372;47.956;7.830;2023-06-26T11:09:57;26.50;99.90
2729;DHT22;1372;47.956;7.830;2023-06-26T11:12:37;26.50;99.90
2729;DHT22;1372;47.956;7.830;2023-06-26T11:15:08;26.40;99.90
2729;DHT22;1372;47.956;7.830;2023-06-26T11:17:38;26.50;99.90
2729;DHT22;1372;47.956;7.830;2023-06-26T11:20:09;26.70;99.90
2729;DHT22;1372;47.956;7.830;2023-06-26T11:22:41;26.90;99.90
2729;DHT22;1372;47.956;7.830;2023-06-26T11:25:11;26.90;99.90
2729;DHT22;1372;47.956;7.830;2023-06-26T11:27:40;27.00;99.90
2729;DHT22;1372;47.956;7.830;2023-06-26T11:30:11;27.00;99.90
2729;DHT22;1372;47.956;7.830;2023-06-26T11:32:51;27.10;99.90
2729;DHT22;1372;47.956;7.830;2023-06-26T11:35:25;27.20;99.90
2729;DHT22;1372;47.956;7.830;2023-06-26T11:38:01;27.30;99.90
2729;DHT22;1372;47.956;7.830;2023-06-26T11:40:33;27.30;99.90
2729;DHT22;1372;47.956;7.830;2023-06-26T11:43:06;27.40;99.90
2729;DHT22;1372;47.956;7.830;2023-06-26T11:45:35;27.60;99.90
2729;DHT22;1372;47.956;7.830;2023-06-26T11:48:04;27.60;99.90
2729;DHT22;1372;47.956;7.830;2023-06-26T11:50:37;27.70;99.90
2729;DHT22;1372;47.956;7.830;2023-06-26T11:53:08;27.90;99.90
2729;DHT22;1372;47.956;7.830;2023-06-26T11:55:41;27.70;99.90
2729;DHT22;1372;47.956;7.830;2023-06-26T11:58:13;27.80;99.90
2729;DHT22;1372;47.956;7.830;2023-06-26T12:00:42;27.90;99.90
2729;DHT22;1372;47.956;7.830;2023-06-26T12:03:12;27.70;99.90
2729;DHT22;1372;47.956;7.830;2023-06-26T12:05:41;27.50;99.90
2729;DHT22;1372;47.956;7.830;2023-06-26T12:08:16;27.40;99.90
2729;DHT22;1372;47.956;7.830;2023-06-26T12:10:45;27.30;99.90
2729;DHT22;1372;47.956;7.830;2023-06-26T12:13:14;27.10;99.90
2729;DHT22;1372;47.956;7.830;2023-06-26T12:15:43;27.00;99.90
2729;DHT22;1372;47.956;7.830;2023-06-26T12:18:12;26.90;99.90
2729;DHT22;1372;47.956;7.830;2023-06-26T12:20:41;26.70;99.90
2729;DHT22;1372;47.956;7.830;2023-06-26T12:23:13;26.60;99.90
2729;DHT22;1372;47.956;7.830;2023-06-26T12:25:44;26.50;99.90
2729;DHT22;1372;47.956;7.830;2023-06-26T12:28:18;26.50;99.90
2729;DHT22;1372;47.956;7.830;2023-06-26T12:30:47;26.50;99.90
2729;DHT22;1372;47.956;7.830;2023-06-26T12:33:16;26.70;99.90
2729;DHT22;1372;47.956;7.830;2023-06-26T12:35:45;26.80;99.90
2729;DHT22;1372;47.956;7.830;2023-06-26T12:38:14;26.80;99.90
2729;DHT22;1372;47.956;7.830;2023-06-26T12:40:49;26.80;99.90
2729;DHT22;1372;47.956;7.830;2023-06-26T12:43:27;26.70;99.90
2729;DHT22;1372;47.956;7.830;2023-06-26T12:45:56;26.60;99.90
2729;DHT22;1372;47.956;7.830;2023-06-26T12:48:36;26.40;99.90
2729;DHT22;1372;47.956;7.830;2023-06-26T12:51:14;26.30;99.90
2729;DHT22;1372;47.956;7.830;2023-06-26T12:53:44;26.20;99.90
2729;DHT22;1372;47.956;7.830;2023-06-26T12:56:14;26.20;99.90
2729;DHT22;1372;47.956;7.830;2023-06-26T12:58:43;26.20;99.90
2729;DHT22;1372;47.956;7.830;2023-06-26T13:01:12;26.10;99.90
2729;DHT22;1372;47.956;7.830;2023-06-26T13:03:42;26.10;99.90
2729;DHT22;1372;47.956;7.830;2023-06-26T13:06:11;26.20;99.90
2729;DHT22;1372;47.956;7.830;2023-06-26T13:08:42;26.20;99.90
2729;DHT22;1372;47.956;7.830;2023-06-26T13:11:11;26.20;99.90
2729;DHT22;1372;47.956;7.830;2023-06-26T13:13:41;26.20;99.90
2729;DHT22;1372;47.956;7.830;2023-06-26T13:16:12;26.30;99.90
2729;DHT22;1372;47.956;7.830;2023-06-26T13:18:41;26.40;99.90
2729;DHT22;1372;47.956;7.830;2023-06-26T13:21:09;26.40;99.90
2729;DHT22;1372;47.956;7.830;2023-06-26T13:23:39;26.40;99.90
2729;DHT22;1372;47.956;7.830;2023-06-26T13:26:08;26.40;99.90
2729;DHT22;1372;47.956;7.830;2023-06-26T13:28:48;26.40;99.90
2729;DHT22;1372;47.956;7.830;2023-06-26T13:31:17;26.30;99.90
2729;DHT22;1372;47.956;7.830;2023-06-26T13:33:47;26.40;99.90
2729;DHT22;1372;47.956;7.830;2023-06-26T13:36:16;26.50;99.90
2729;DHT22;1372;47.956;7.830;2023-06-26T13:38:47;26.60;99.90
2729;DHT22;1372;47.956;7.830;2023-06-26T13:41:22;27.00;99.90
2729;DHT22;1372;47.956;7.830;2023-06-26T13:43:53;27.50;99.90
2729;DHT22;1372;47.956;7.830;2023-06-26T13:46:24;27.70;99.90
2729;DHT22;1372;47.956;7.830;2023-06-26T13:48:55;28.00;99.90
2729;DHT22;1372;47.956;7.830;2023-06-26T13:51:23;27.90;99.90
2729;DHT22;1372;47.956;7.830;2023-06-26T13:53:52;27.70;99.90
2729;DHT22;1372;47.956;7.830;2023-06-26T13:56:22;27.50;99.90
2729;DHT22;1372;47.956;7.830;2023-06-26T13:58:53;27.30;99.90
2729;DHT22;1372;47.956;7.830;2023-06-26T14:01:22;27.10;99.90
2729;DHT22;1372;47.956;7.830;2023-06-26T14:03:51;27.00;99.90
2729;DHT22;1372;47.956;7.830;2023-06-26T14:06:20;26.90;99.90
2729;DHT22;1372;47.956;7.830;2023-06-26T14:08:48;26.80;99.90
2729;DHT22;1372;47.956;7.830;2023-06-26T14:11:18;27.10;99.90
2729;DHT22;1372;47.956;7.830;2023-06-26T14:13:46;27.30;99.90
2729;DHT22;1372;47.956;7.830;2023-06-26T14:16:17;27.60;99.90
2729;DHT22;1372;47.956;7.830;2023-06-26T14:18:48;27.90;99.90
2729;DHT22;1372;47.956;7.830;2023-06-26T14:21:17;28.00;99.90
2729;DHT22;1372;47.956;7.830;2023-06-26T14:23:46;28.00;99.90
2729;DHT22;1372;47.956;7.830;2023-06-26T14:26:15;28.00;99.90
2729;DHT22;1372;47.956;7.830;2023-06-26T14:28:44;27.80;99.90
2729;DHT22;1372;47.956;7.830;2023-06-26T14:31:13;27.60;99.90
2729;DHT22;1372;47.956;7.830;2023-06-26T14:33:43;27.60;99.90
2729;DHT22;1372;47.956;7.830;2023-06-26T14:36:12;27.80;99.90
2729;DHT22;1372;47.956;7.830;2023-06-26T14:38:41;27.80;99.90
2729;DHT22;1372;47.956;7.830;2023-06-26T14:41:09;28.00;99.90
2729;DHT22;1372;47.956;7.830;2023-06-26T14:43:41;28.00;99.90
2729;DHT22;1372;47.956;7.830;2023-06-26T14:46:12;28.00;99.90
2729;DHT22;1372;47.956;7.830;2023-06-26T14:48:42;28.20;99.90
2729;DHT22;1372;47.956;7.830;2023-06-26T14:51:11;28.20;99.90
2729;DHT22;1372;47.956;7.830;2023-06-26T14:53:40;28.10;99.90
2729;DHT22;1372;47.956;7.830;2023-06-26T14:56:09;28.00;99.90
2729;DHT22;1372;47.956;7.830;2023-06-26T14:58:38;27.80;99.90
2729;DHT22;1372;47.956;7.830;2023-06-26T15:01:07;27.70;99.90
2729;DHT22;1372;47.956;7.830;2023-06-26T15:03:36;27.60;99.90
2729;DHT22;1372;47.956;7.830;2023-06-26T15:06:06;27.60;99.90
2729;DHT22;1372;47.956;7.830;2023-06-26T15:08:35;27.70;99.90
2729;DHT22;1372;47.956;7.830;2023-06-26T15:11:04;27.80;99.90
2729;DHT22;1372;47.956;7.830;2023-06-26T15:13:33;27.80;99.90
2729;DHT22;1372;47.956;7.830;2023-06-26T15:16:02;27.70;99.90
2729;DHT22;1372;47.956;7.830;2023-06-26T15:18:33;27.60;99.90
2729;DHT22;1372;47.956;7.830;2023-06-26T15:21:02;27.70;99.90
2729;DHT22;1372;47.956;7.830;2023-06-26T15:23:33;28.00;99.90
2729;DHT22;1372;47.956;7.830;2023-06-26T15:26:02;28.20;99.90
2729;DHT22;1372;47.956;7.830;2023-06-26T15:28:31;28.40;99.90
2729;DHT22;1372;47.956;7.830;2023-06-26T15:30:59;28.40;99.90
2729;DHT22;1372;47.956;7.830;2023-06-26T15:33:28;28.60;99.90
2729;DHT22;1372;47.956;7.830;2023-06-26T15:35:58;28.40;99.90
2729;DHT22;1372;47.956;7.830;2023-06-26T15:38:29;28.10;99.90
2729;DHT22;1372;47.956;7.830;2023-06-26T15:41:00;27.80;99.90
2729;DHT22;1372;47.956;7.830;2023-06-26T15:43:31;27.60;99.90
2729;DHT22;1372;47.956;7.830;2023-06-26T15:46:00;27.40;99.90
2729;DHT22;1372;47.956;7.830;2023-06-26T15:48:30;27.30;99.90
2729;DHT22;1372;47.956;7.830;2023-06-26T15:50:59;27.20;99.90
2729;DHT22;1372;47.956;7.830;2023-06-26T15:53:34;27.10;99.90
2729;DHT22;1372;47.956;7.830;2023-06-26T15:56:08;27.00;99.90
2729;DHT22;1372;47.956;7.830;2023-06-26T15:58:38;27.00;99.90
2729;DHT22;1372;47.956;7.830;2023-06-26T16:01:11;27.00;99.90
2729;DHT22;1372;47.956;7.830;2023-06-26T16:03:42;26.90;99.90
2729;DHT22;1372;47.956;7.830;2023-06-26T16:06:11;26.80;99.90
2729;DHT22;1372;47.956;7.830;2023-06-26T16:08:42;26.80;99.90
2729;DHT22;1372;47.956;7.830;2023-06-26T16:11:14;26.80;99.90
2729;DHT22;1372;47.956;7.830;2023-06-26T16:13:44;26.90;99.90
2729;DHT22;1372;47.956;7.830;2023-06-26T16:16:14;26.80;99.90
2729;DHT22;1372;47.956;7.830;2023-06-26T16:18:42;26.70;99.90
2729;DHT22;1372;47.956;7.830;2023-06-26T16:21:11;26.80;99.90
2729;DHT22;1372;47.956;7.830;2023-06-26T16:23:40;26.70;99.90